sensor_id;sensor_type;location;lat;lon;timestamp;P1;durP1;ratioP1;P2;durP2;ratioP2
61499;SDS011;47361;49.996;19.918;2023-07-29T00:02:49;3.2;;;2.5;;
61499;SDS011;47361;49.996;19.918;2023-07-29T00:03:49;3.2;;;2.5;;
61499;SDS011;47361;49.996;19.918;2023-07-29T00:07:49;3.5;;;2.3;;
61499;SDS011;47361;49.996;19.918;2023-07-29T00:09:49;3.5;;;2.3;;
61499;SDS011;47361;49.996;19.918;2023-07-29T00:12:49;3.1;;;2.3;;
61499;SDS011;47361;49.996;19.918;2023-07-29T00:13:49;3.1;;;2.3;;
61499;SDS011;47361;49.996;19.918;2023-07-29T00:22:50;4.5;;;2.3;;
61499;SDS011;47361;49.996;19.918;2023-07-29T00:23:49;4.5;;;2.3;;
61499;SDS011;47361;49.996;19.918;2023-07-29T00:25:50;4.5;;;2.3;;
61499;SDS011;47361;49.996;19.918;2023-07-29T00:27:49;4.4;;;2.3;;
61499;SDS011;47361;49.996;19.918;2023-07-29T00:29:49;4.4;;;2.3;;
61499;SDS011;47361;49.996;19.918;2023-07-29T00:32:49;5.1;;;2.5;;
61499;SDS011;47361;49.996;19.918;2023-07-29T00:38:49;3.1;;;2.3;;
61499;SDS011;47361;49.996;19.918;2023-07-29T00:40:49;3.1;;;2.3;;
61499;SDS011;47361;49.996;19.918;2023-07-29T00:42:50;4.2;;;2.6;;
61499;SDS011;47361;49.996;19.918;2023-07-29T00:43:49;4.2;;;2.6;;
61499;SDS011;47361;49.996;19.918;2023-07-29T00:45:50;4.2;;;2.6;;
61499;SDS011;47361;49.996;19.918;2023-07-29T00:49:51;3.8;;;2.4;;
61499;SDS011;47361;49.996;19.918;2023-07-29T00:54:49;3.0;;;2.3;;
61499;SDS011;47361;49.996;19.918;2023-07-29T00:57:50;5.9;;;2.6;;
61499;SDS011;47361;49.996;19.918;2023-07-29T00:58:50;5.9;;;2.6;;
61499;SDS011;47361;49.996;19.918;2023-07-29T01:04:51;5.6;;;2.9;;
61499;SDS011;47361;49.996;19.918;2023-07-29T01:10:56;7.2;;;2.8;;
61499;SDS011;47361;49.996;19.918;2023-07-29T01:12:54;7.5;;;2.9;;
61499;SDS011;47361;49.996;19.918;2023-07-29T01:13:53;7.5;;;2.9;;
61499;SDS011;47361;49.996;19.918;2023-07-29T01:14:54;7.5;;;2.9;;
61499;SDS011;47361;49.996;19.918;2023-07-29T01:18:52;9.3;;;3.0;;
61499;SDS011;47361;49.996;19.918;2023-07-29T01:21:50;5.7;;;2.7;;
61499;SDS011;47361;49.996;19.918;2023-07-29T01:27:50;4.5;;;2.9;;
61499;SDS011;47361;49.996;19.918;2023-07-29T01:29:50;4.5;;;2.9;;
61499;SDS011;47361;49.996;19.918;2023-07-29T01:32:54;4.7;;;2.6;;
61499;SDS011;47361;49.996;19.918;2023-07-29T01:33:56;4.7;;;2.6;;
61499;SDS011;47361;49.996;19.918;2023-07-29T01:37:53;4.4;;;2.5;;
61499;SDS011;47361;49.996;19.918;2023-07-29T01:39:50;4.4;;;2.5;;
61499;SDS011;47361;49.996;19.918;2023-07-29T01:45:50;3.4;;;2.5;;
61499;SDS011;47361;49.996;19.918;2023-07-29T01:47:50;4.1;;;2.4;;
61499;SDS011;47361;49.996;19.918;2023-07-29T01:48:49;4.1;;;2.4;;
61499;SDS011;47361;49.996;19.918;2023-07-29T01:52:49;4.2;;;2.6;;
61499;SDS011;47361;49.996;19.918;2023-07-29T01:54:49;4.2;;;2.6;;
61499;SDS011;47361;49.996;19.918;2023-07-29T01:55:49;4.2;;;2.6;;
61499;SDS011;47361;49.996;19.918;2023-07-29T01:59:50;5.4;;;2.7;;
61499;SDS011;47361;49.996;19.918;2023-07-29T02:06:49;5.0;;;2.9;;
61499;SDS011;47361;49.996;19.918;2023-07-29T02:16:50;5.4;;;2.5;;
61499;SDS011;47361;49.996;19.918;2023-07-29T02:19:49;5.4;;;2.5;;
61499;SDS011;47361;49.996;19.918;2023-07-29T02:21:49;3.3;;;2.8;;
61499;SDS011;47361;49.996;19.918;2023-07-29T02:22:49;3.3;;;2.8;;
61499;SDS011;47361;49.996;19.918;2023-07-29T02:24:49;3.3;;;2.8;;
61499;SDS011;47361;49.996;19.918;2023-07-29T02:29:50;4.1;;;2.7;;
61499;SDS011;47361;49.996;19.918;2023-07-29T02:33:50;4.1;;;2.9;;
61499;SDS011;47361;49.996;19.918;2023-07-29T02:37:49;5.4;;;2.8;;
61499;SDS011;47361;49.996;19.918;2023-07-29T02:41:50;4.2;;;2.7;;
61499;SDS011;47361;49.996;19.918;2023-07-29T02:45:49;4.2;;;2.7;;
61499;SDS011;47361;49.996;19.918;2023-07-29T02:46:50;6.7;;;2.9;;
61499;SDS011;47361;49.996;19.918;2023-07-29T02:49:49;6.7;;;2.9;;
61499;SDS011;47361;49.996;19.918;2023-07-29T02:51:49;5.0;;;3.1;;
61499;SDS011;47361;49.996;19.918;2023-07-29T02:56:50;6.1;;;2.8;;
61499;SDS011;47361;49.996;19.918;2023-07-29T02:59:49;6.1;;;2.8;;
61499;SDS011;47361;49.996;19.918;2023-07-29T03:02:50;5.0;;;2.8;;
61499;SDS011;47361;49.996;19.918;2023-07-29T03:04:49;5.0;;;2.8;;
61499;SDS011;47361;49.996;19.918;2023-07-29T03:08:50;4.6;;;2.8;;
61499;SDS011;47361;49.996;19.918;2023-07-29T03:10:49;4.6;;;2.8;;
61499;SDS011;47361;49.996;19.918;2023-07-29T03:13:49;6.3;;;2.8;;
61499;SDS011;47361;49.996;19.918;2023-07-29T03:15:50;6.3;;;2.8;;
61499;SDS011;47361;49.996;19.918;2023-07-29T03:16:50;4.4;;;2.8;;
61499;SDS011;47361;49.996;19.918;2023-07-29T03:18:49;4.4;;;2.8;;
61499;SDS011;47361;49.996;19.918;2023-07-29T03:20:50;4.4;;;2.8;;
61499;SDS011;47361;49.996;19.918;2023-07-29T03:21:50;6.7;;;3.0;;
61499;SDS011;47361;49.996;19.918;2023-07-29T03:25:50;6.7;;;3.0;;
61499;SDS011;47361;49.996;19.918;2023-07-29T03:26:49;5.2;;;3.1;;
61499;SDS011;47361;49.996;19.918;2023-07-29T03:31:50;4.3;;;3.0;;
61499;SDS011;47361;49.996;19.918;2023-07-29T03:34:49;4.3;;;3.0;;
61499;SDS011;47361;49.996;19.918;2023-07-29T03:36:49;5.5;;;3.0;;
61499;SDS011;47361;49.996;19.918;2023-07-29T03:38:49;5.5;;;3.0;;
61499;SDS011;47361;49.996;19.918;2023-07-29T03:40:50;5.5;;;3.0;;
61499;SDS011;47361;49.996;19.918;2023-07-29T03:41:49;5.5;;;3.0;;
61499;SDS011;47361;49.996;19.918;2023-07-29T03:42:50;5.5;;;3.0;;
61499;SDS011;47361;49.996;19.918;2023-07-29T03:54:50;6.5;;;3.9;;
61499;SDS011;47361;49.996;19.918;2023-07-29T03:59:49;6.5;;;3.6;;
61499;SDS011;47361;49.996;19.918;2023-07-29T04:11:50;6.8;;;4.0;;
61499;SDS011;47361;49.996;19.918;2023-07-29T04:16:49;8.0;;;4.3;;
61499;SDS011;47361;49.996;19.918;2023-07-29T04:19:49;8.0;;;4.3;;
61499;SDS011;47361;49.996;19.918;2023-07-29T04:21:49;8.4;;;4.3;;
61499;SDS011;47361;49.996;19.918;2023-07-29T04:24:50;8.4;;;4.3;;
61499;SDS011;47361;49.996;19.918;2023-07-29T04:26:49;6.9;;;4.0;;
61499;SDS011;47361;49.996;19.918;2023-07-29T04:31:50;8.0;;;3.6;;
61499;SDS011;47361;49.996;19.918;2023-07-29T04:34:50;8.0;;;3.6;;
61499;SDS011;47361;49.996;19.918;2023-07-29T04:36:50;6.3;;;3.5;;
61499;SDS011;47361;49.996;19.918;2023-07-29T04:41:50;5.6;;;3.7;;
61499;SDS011;47361;49.996;19.918;2023-07-29T04:43:49;5.6;;;3.7;;
61499;SDS011;47361;49.996;19.918;2023-07-29T04:46:50;6.7;;;3.3;;
61499;SDS011;47361;49.996;19.918;2023-07-29T04:47:50;6.7;;;3.3;;
61499;SDS011;47361;49.996;19.918;2023-07-29T04:51:49;5.5;;;3.6;;
61499;SDS011;47361;49.996;19.918;2023-07-29T04:53:50;5.5;;;3.6;;
61499;SDS011;47361;49.996;19.918;2023-07-29T04:56:50;6.0;;;3.6;;
61499;SDS011;47361;49.996;19.918;2023-07-29T04:57:49;6.0;;;3.6;;
61499;SDS011;47361;49.996;19.918;2023-07-29T05:01:50;5.7;;;3.4;;
61499;SDS011;47361;49.996;19.918;2023-07-29T05:03:49;5.7;;;3.4;;
61499;SDS011;47361;49.996;19.918;2023-07-29T05:05:49;5.7;;;3.4;;
61499;SDS011;47361;49.996;19.918;2023-07-29T05:06:50;4.2;;;3.1;;
61499;SDS011;47361;49.996;19.918;2023-07-29T05:07:49;4.2;;;3.1;;
61499;SDS011;47361;49.996;19.918;2023-07-29T05:09:49;4.2;;;3.1;;
61499;SDS011;47361;49.996;19.918;2023-07-29T05:11:49;5.7;;;3.7;;
61499;SDS011;47361;49.996;19.918;2023-07-29T05:16:50;4.8;;;3.2;;
61499;SDS011;47361;49.996;19.918;2023-07-29T05:21:49;5.1;;;3.1;;
61499;SDS011;47361;49.996;19.918;2023-07-29T05:25:49;5.1;;;3.1;;
61499;SDS011;47361;49.996;19.918;2023-07-29T05:26:50;6.2;;;3.5;;
61499;SDS011;47361;49.996;19.918;2023-07-29T05:31:50;5.1;;;3.9;;
61499;SDS011;47361;49.996;19.918;2023-07-29T05:33:50;5.1;;;3.9;;
61499;SDS011;47361;49.996;19.918;2023-07-29T05:35:49;5.1;;;3.9;;
61499;SDS011;47361;49.996;19.918;2023-07-29T05:36:50;5.3;;;3.8;;
61499;SDS011;47361;49.996;19.918;2023-07-29T05:41:50;5.7;;;3.4;;
61499;SDS011;47361;49.996;19.918;2023-07-29T05:46:50;5.2;;;3.6;;
61499;SDS011;47361;49.996;19.918;2023-07-29T05:47:50;5.2;;;3.6;;
61499;SDS011;47361;49.996;19.918;2023-07-29T05:51:50;4.8;;;3.3;;
61499;SDS011;47361;49.996;19.918;2023-07-29T05:54:50;4.8;;;3.3;;
61499;SDS011;47361;49.996;19.918;2023-07-29T05:56:50;4.3;;;3.1;;
61499;SDS011;47361;49.996;19.918;2023-07-29T05:58:50;4.3;;;3.1;;
61499;SDS011;47361;49.996;19.918;2023-07-29T06:01:50;4.6;;;2.8;;
61499;SDS011;47361;49.996;19.918;2023-07-29T06:06:50;4.8;;;2.8;;
61499;SDS011;47361;49.996;19.918;2023-07-29T06:07:50;4.8;;;2.8;;
61499;SDS011;47361;49.996;19.918;2023-07-29T06:10:50;4.8;;;2.8;;
61499;SDS011;47361;49.996;19.918;2023-07-29T06:11:50;3.9;;;3.1;;
61499;SDS011;47361;49.996;19.918;2023-07-29T06:13:50;3.9;;;3.1;;
61499;SDS011;47361;49.996;19.918;2023-07-29T06:16:50;3.7;;;2.6;;
61499;SDS011;47361;49.996;19.918;2023-07-29T06:20:50;3.7;;;2.6;;
61499;SDS011;47361;49.996;19.918;2023-07-29T06:23:50;3.3;;;2.3;;
61499;SDS011;47361;49.996;19.918;2023-07-29T06:26:50;4.3;;;2.8;;
61499;SDS011;47361;49.996;19.918;2023-07-29T06:27:50;4.3;;;2.8;;
61499;SDS011;47361;49.996;19.918;2023-07-29T06:31:50;4.0;;;3.0;;
61499;SDS011;47361;49.996;19.918;2023-07-29T06:32:50;4.0;;;3.0;;
61499;SDS011;47361;49.996;19.918;2023-07-29T06:35:50;4.0;;;3.0;;
61499;SDS011;47361;49.996;19.918;2023-07-29T06:36:50;4.9;;;3.0;;
61499;SDS011;47361;49.996;19.918;2023-07-29T06:40:50;4.0;;;2.2;;
61499;SDS011;47361;49.996;19.918;2023-07-29T06:41:50;4.0;;;2.2;;
61499;SDS011;47361;49.996;19.918;2023-07-29T06:44:50;4.0;;;2.2;;
61499;SDS011;47361;49.996;19.918;2023-07-29T06:46:50;4.1;;;2.4;;
61499;SDS011;47361;49.996;19.918;2023-07-29T06:51:50;2.6;;;2.0;;
61499;SDS011;47361;49.996;19.918;2023-07-29T06:55:50;2.8;;;2.1;;
61499;SDS011;47361;49.996;19.918;2023-07-29T06:57:50;2.8;;;2.1;;
61499;SDS011;47361;49.996;19.918;2023-07-29T06:58:50;2.8;;;2.1;;
61499;SDS011;47361;49.996;19.918;2023-07-29T07:00:50;3.3;;;2.5;;
61499;SDS011;47361;49.996;19.918;2023-07-29T07:05:50;2.3;;;2.1;;
61499;SDS011;47361;49.996;19.918;2023-07-29T07:06:50;2.3;;;2.1;;
61499;SDS011;47361;49.996;19.918;2023-07-29T07:09:50;2.3;;;2.1;;
61499;SDS011;47361;49.996;19.918;2023-07-29T07:10:50;2.1;;;1.9;;
61499;SDS011;47361;49.996;19.918;2023-07-29T07:11:50;2.1;;;1.9;;
61499;SDS011;47361;49.996;19.918;2023-07-29T07:15:50;2.0;;;1.6;;
61499;SDS011;47361;49.996;19.918;2023-07-29T07:17:50;2.0;;;1.6;;
61499;SDS011;47361;49.996;19.918;2023-07-29T07:19:50;2.0;;;1.6;;
61499;SDS011;47361;49.996;19.918;2023-07-29T07:20:50;2.8;;;1.7;;
61499;SDS011;47361;49.996;19.918;2023-07-29T07:24:50;2.8;;;1.7;;
61499;SDS011;47361;49.996;19.918;2023-07-29T07:27:50;2.1;;;1.7;;
61499;SDS011;47361;49.996;19.918;2023-07-29T07:30:50;1.8;;;1.7;;
61499;SDS011;47361;49.996;19.918;2023-07-29T07:33:50;1.8;;;1.7;;
61499;SDS011;47361;49.996;19.918;2023-07-29T07:36:50;2.9;;;1.7;;
61499;SDS011;47361;49.996;19.918;2023-07-29T07:39:50;2.9;;;1.7;;
61499;SDS011;47361;49.996;19.918;2023-07-29T07:41:50;1.9;;;1.6;;
61499;SDS011;47361;49.996;19.918;2023-07-29T07:45:51;2.3;;;1.7;;
61499;SDS011;47361;49.996;19.918;2023-07-29T07:46:50;2.3;;;1.7;;
61499;SDS011;47361;49.996;19.918;2023-07-29T07:49:50;2.3;;;1.7;;
61499;SDS011;47361;49.996;19.918;2023-07-29T07:51:50;2.2;;;1.7;;
61499;SDS011;47361;49.996;19.918;2023-07-29T07:53:50;2.2;;;1.7;;
61499;SDS011;47361;49.996;19.918;2023-07-29T07:55:50;4.6;;;1.9;;
61499;SDS011;47361;49.996;19.918;2023-07-29T07:56:50;4.6;;;1.9;;
61499;SDS011;47361;49.996;19.918;2023-07-29T07:59:50;4.6;;;1.9;;
61499;SDS011;47361;49.996;19.918;2023-07-29T08:00:50;2.7;;;1.4;;
61499;SDS011;47361;49.996;19.918;2023-07-29T08:02:50;2.7;;;1.4;;
61499;SDS011;47361;49.996;19.918;2023-07-29T08:07:50;2.3;;;1.6;;
61499;SDS011;47361;49.996;19.918;2023-07-29T08:08:50;2.3;;;1.6;;
61499;SDS011;47361;49.996;19.918;2023-07-29T08:11:50;2.0;;;1.6;;
61499;SDS011;47361;49.996;19.918;2023-07-29T08:14:50;2.0;;;1.6;;
61499;SDS011;47361;49.996;19.918;2023-07-29T08:16:50;2.4;;;1.8;;
61499;SDS011;47361;49.996;19.918;2023-07-29T08:18:50;2.4;;;1.8;;
61499;SDS011;47361;49.996;19.918;2023-07-29T08:19:50;2.4;;;1.8;;
61499;SDS011;47361;49.996;19.918;2023-07-29T08:20:52;2.6;;;1.5;;
61499;SDS011;47361;49.996;19.918;2023-07-29T08:22:50;2.6;;;1.5;;
61499;SDS011;47361;49.996;19.918;2023-07-29T08:25:52;1.5;;;1.4;;
61499;SDS011;47361;49.996;19.918;2023-07-29T08:28:50;1.5;;;1.4;;
61499;SDS011;47361;49.996;19.918;2023-07-29T08:29:50;1.5;;;1.4;;
61499;SDS011;47361;49.996;19.918;2023-07-29T08:31:50;2.5;;;1.8;;
61499;SDS011;47361;49.996;19.918;2023-07-29T08:32:50;2.5;;;1.8;;
61499;SDS011;47361;49.996;19.918;2023-07-29T08:34:50;2.5;;;1.8;;
61499;SDS011;47361;49.996;19.918;2023-07-29T08:35:50;1.6;;;1.5;;
61499;SDS011;47361;49.996;19.918;2023-07-29T08:38:50;1.6;;;1.5;;
61499;SDS011;47361;49.996;19.918;2023-07-29T08:40:59;2.6;;;1.5;;
61499;SDS011;47361;49.996;19.918;2023-07-29T08:42:00;2.6;;;1.5;;
61499;SDS011;47361;49.996;19.918;2023-07-29T08:42:50;2.6;;;1.5;;
61499;SDS011;47361;49.996;19.918;2023-07-29T08:44:51;2.6;;;1.5;;
61499;SDS011;47361;49.996;19.918;2023-07-29T08:45:51;2.3;;;1.7;;
61499;SDS011;47361;49.996;19.918;2023-07-29T08:46:50;2.3;;;1.7;;
61499;SDS011;47361;49.996;19.918;2023-07-29T08:47:53;2.3;;;1.7;;
61499;SDS011;47361;49.996;19.918;2023-07-29T08:50:52;3.1;;;1.3;;
61499;SDS011;47361;49.996;19.918;2023-07-29T08:51:53;3.1;;;1.3;;
61499;SDS011;47361;49.996;19.918;2023-07-29T08:52:51;3.1;;;1.3;;
61499;SDS011;47361;49.996;19.918;2023-07-29T08:54:50;3.1;;;1.3;;
61499;SDS011;47361;49.996;19.918;2023-07-29T08:55:50;1.9;;;1.2;;
61499;SDS011;47361;49.996;19.918;2023-07-29T08:56:50;1.9;;;1.2;;
61499;SDS011;47361;49.996;19.918;2023-07-29T08:58:50;1.9;;;1.2;;
61499;SDS011;47361;49.996;19.918;2023-07-29T09:00:50;1.5;;;1.4;;
61499;SDS011;47361;49.996;19.918;2023-07-29T09:02:50;1.5;;;1.4;;
61499;SDS011;47361;49.996;19.918;2023-07-29T09:03:50;1.5;;;1.4;;
61499;SDS011;47361;49.996;19.918;2023-07-29T09:05:50;0.9;;;0.8;;
61499;SDS011;47361;49.996;19.918;2023-07-29T09:10:50;2.5;;;1.2;;
61499;SDS011;47361;49.996;19.918;2023-07-29T09:11:50;2.5;;;1.2;;
61499;SDS011;47361;49.996;19.918;2023-07-29T09:14:51;2.5;;;1.2;;
61499;SDS011;47361;49.996;19.918;2023-07-29T09:15:54;3.4;;;1.6;;
61499;SDS011;47361;49.996;19.918;2023-07-29T09:18:51;3.4;;;1.6;;
61499;SDS011;47361;49.996;19.918;2023-07-29T09:23:50;1.7;;;1.1;;
61499;SDS011;47361;49.996;19.918;2023-07-29T09:25:50;2.3;;;1.3;;
61499;SDS011;47361;49.996;19.918;2023-07-29T09:27:50;2.3;;;1.3;;
61499;SDS011;47361;49.996;19.918;2023-07-29T09:29:50;2.3;;;1.3;;
61499;SDS011;47361;49.996;19.918;2023-07-29T09:30:50;2.3;;;1.3;;
61499;SDS011;47361;49.996;19.918;2023-07-29T09:32:54;2.3;;;1.3;;
61499;SDS011;47361;49.996;19.918;2023-07-29T09:33:55;2.3;;;1.3;;
61499;SDS011;47361;49.996;19.918;2023-07-29T09:34:50;2.3;;;1.3;;
61499;SDS011;47361;49.996;19.918;2023-07-29T09:38:52;5.9;;;2.0;;
61499;SDS011;47361;49.996;19.918;2023-07-29T09:39:50;5.9;;;2.0;;
61499;SDS011;47361;49.996;19.918;2023-07-29T09:40:54;3.1;;;1.4;;
61499;SDS011;47361;49.996;19.918;2023-07-29T09:41:50;3.1;;;1.4;;
61499;SDS011;47361;49.996;19.918;2023-07-29T09:42:50;3.1;;;1.4;;
61499;SDS011;47361;49.996;19.918;2023-07-29T09:44:50;3.1;;;1.4;;
61499;SDS011;47361;49.996;19.918;2023-07-29T09:45:51;4.0;;;1.5;;
61499;SDS011;47361;49.996;19.918;2023-07-29T09:46:50;4.0;;;1.5;;
61499;SDS011;47361;49.996;19.918;2023-07-29T09:47:51;4.0;;;1.5;;
61499;SDS011;47361;49.996;19.918;2023-07-29T09:50:50;2.1;;;1.3;;
61499;SDS011;47361;49.996;19.918;2023-07-29T09:53:51;2.1;;;1.3;;
61499;SDS011;47361;49.996;19.918;2023-07-29T09:54:50;2.1;;;1.3;;
61499;SDS011;47361;49.996;19.918;2023-07-29T09:55:50;1.8;;;1.5;;
61499;SDS011;47361;49.996;19.918;2023-07-29T09:56:50;1.8;;;1.5;;
61499;SDS011;47361;49.996;19.918;2023-07-29T09:58:50;1.8;;;1.5;;
61499;SDS011;47361;49.996;19.918;2023-07-29T10:04:51;2.9;;;1.4;;
61499;SDS011;47361;49.996;19.918;2023-07-29T10:05:50;2.2;;;1.6;;
61499;SDS011;47361;49.996;19.918;2023-07-29T10:06:50;2.2;;;1.6;;
61499;SDS011;47361;49.996;19.918;2023-07-29T10:07:50;2.2;;;1.6;;
61499;SDS011;47361;49.996;19.918;2023-07-29T10:09:51;2.2;;;1.6;;
61499;SDS011;47361;49.996;19.918;2023-07-29T10:10:50;2.4;;;1.3;;
61499;SDS011;47361;49.996;19.918;2023-07-29T10:12:50;2.4;;;1.3;;
61499;SDS011;47361;49.996;19.918;2023-07-29T10:13:50;2.4;;;1.3;;
61499;SDS011;47361;49.996;19.918;2023-07-29T10:17:51;1.5;;;1.4;;
61499;SDS011;47361;49.996;19.918;2023-07-29T10:20:51;1.6;;;1.4;;
61499;SDS011;47361;49.996;19.918;2023-07-29T10:22:52;1.6;;;1.4;;
61499;SDS011;47361;49.996;19.918;2023-07-29T10:23:53;1.6;;;1.4;;
61499;SDS011;47361;49.996;19.918;2023-07-29T10:24:52;1.6;;;1.4;;
61499;SDS011;47361;49.996;19.918;2023-07-29T10:25:55;1.6;;;1.2;;
61499;SDS011;47361;49.996;19.918;2023-07-29T10:27:53;1.6;;;1.2;;
61499;SDS011;47361;49.996;19.918;2023-07-29T10:31:52;1.6;;;1.5;;
61499;SDS011;47361;49.996;19.918;2023-07-29T10:37:50;2.1;;;1.6;;
61499;SDS011;47361;49.996;19.918;2023-07-29T10:43:50;2.2;;;1.7;;
61499;SDS011;47361;49.996;19.918;2023-07-29T10:45:50;2.8;;;1.8;;
61499;SDS011;47361;49.996;19.918;2023-07-29T10:47:50;2.8;;;1.8;;
61499;SDS011;47361;49.996;19.918;2023-07-29T10:49:51;2.8;;;1.8;;
61499;SDS011;47361;49.996;19.918;2023-07-29T10:50:50;2.3;;;1.6;;
61499;SDS011;47361;49.996;19.918;2023-07-29T10:52:52;2.3;;;1.6;;
61499;SDS011;47361;49.996;19.918;2023-07-29T10:53:52;2.3;;;1.6;;
61499;SDS011;47361;49.996;19.918;2023-07-29T10:55:51;4.0;;;1.8;;
61499;SDS011;47361;49.996;19.918;2023-07-29T10:57:50;4.0;;;1.8;;
61499;SDS011;47361;49.996;19.918;2023-07-29T10:58:50;4.0;;;1.8;;
61499;SDS011;47361;49.996;19.918;2023-07-29T10:59:54;4.0;;;1.8;;
61499;SDS011;47361;49.996;19.918;2023-07-29T11:00:50;3.1;;;1.8;;
61499;SDS011;47361;49.996;19.918;2023-07-29T11:01:51;3.1;;;1.8;;
61499;SDS011;47361;49.996;19.918;2023-07-29T11:04:01;3.1;;;1.8;;
61499;SDS011;47361;49.996;19.918;2023-07-29T11:07:51;2.4;;;1.6;;
61499;SDS011;47361;49.996;19.918;2023-07-29T11:11:02;2.3;;;1.7;;
61499;SDS011;47361;49.996;19.918;2023-07-29T11:11:50;2.3;;;1.7;;
61499;SDS011;47361;49.996;19.918;2023-07-29T11:12:51;2.3;;;1.7;;
61499;SDS011;47361;49.996;19.918;2023-07-29T11:13:50;2.3;;;1.7;;
61499;SDS011;47361;49.996;19.918;2023-07-29T11:14:50;2.3;;;1.7;;
61499;SDS011;47361;49.996;19.918;2023-07-29T11:16:50;2.2;;;1.5;;
61499;SDS011;47361;49.996;19.918;2023-07-29T11:17:51;2.2;;;1.5;;
61499;SDS011;47361;49.996;19.918;2023-07-29T11:19:50;2.2;;;1.5;;
61499;SDS011;47361;49.996;19.918;2023-07-29T11:20:50;2.2;;;1.6;;
61499;SDS011;47361;49.996;19.918;2023-07-29T11:24:50;2.2;;;1.6;;
61499;SDS011;47361;49.996;19.918;2023-07-29T11:27:51;1.7;;;1.6;;
61499;SDS011;47361;49.996;19.918;2023-07-29T11:28:50;1.7;;;1.6;;
61499;SDS011;47361;49.996;19.918;2023-07-29T11:32:50;3.3;;;2.0;;
61499;SDS011;47361;49.996;19.918;2023-07-29T11:34:50;3.3;;;2.0;;
61499;SDS011;47361;49.996;19.918;2023-07-29T11:35:50;2.9;;;1.8;;
61499;SDS011;47361;49.996;19.918;2023-07-29T11:37:52;2.9;;;1.8;;
61499;SDS011;47361;49.996;19.918;2023-07-29T11:39:50;2.9;;;1.8;;
61499;SDS011;47361;49.996;19.918;2023-07-29T11:40:54;2.2;;;1.5;;
61499;SDS011;47361;49.996;19.918;2023-07-29T11:41:50;2.2;;;1.5;;
61499;SDS011;47361;49.996;19.918;2023-07-29T11:42:51;2.2;;;1.5;;
61499;SDS011;47361;49.996;19.918;2023-07-29T11:45:51;1.2;;;1.1;;
61499;SDS011;47361;49.996;19.918;2023-07-29T11:49:50;1.2;;;1.1;;
61499;SDS011;47361;49.996;19.918;2023-07-29T11:51:50;2.4;;;1.2;;
61499;SDS011;47361;49.996;19.918;2023-07-29T11:52:50;2.4;;;1.2;;
61499;SDS011;47361;49.996;19.918;2023-07-29T11:53:51;2.4;;;1.2;;
61499;SDS011;47361;49.996;19.918;2023-07-29T11:57:51;2.5;;;1.6;;
61499;SDS011;47361;49.996;19.918;2023-07-29T12:01:50;2.3;;;1.6;;
61499;SDS011;47361;49.996;19.918;2023-07-29T12:04:50;2.3;;;1.6;;
61499;SDS011;47361;49.996;19.918;2023-07-29T12:05:50;1.4;;;1.3;;
61499;SDS011;47361;49.996;19.918;2023-07-29T12:06:50;1.4;;;1.3;;
61499;SDS011;47361;49.996;19.918;2023-07-29T12:07:50;1.4;;;1.3;;
61499;SDS011;47361;49.996;19.918;2023-07-29T12:09:51;1.4;;;1.3;;
61499;SDS011;47361;49.996;19.918;2023-07-29T12:10:50;1.3;;;1.2;;
61499;SDS011;47361;49.996;19.918;2023-07-29T12:11:50;1.3;;;1.2;;
61499;SDS011;47361;49.996;19.918;2023-07-29T12:12:50;1.3;;;1.2;;
61499;SDS011;47361;49.996;19.918;2023-07-29T12:14:50;1.3;;;1.2;;
61499;SDS011;47361;49.996;19.918;2023-07-29T12:16:50;1.3;;;1.2;;
61499;SDS011;47361;49.996;19.918;2023-07-29T12:19:54;1.3;;;1.2;;
61499;SDS011;47361;49.996;19.918;2023-07-29T12:20:50;1.1;;;1.0;;
61499;SDS011;47361;49.996;19.918;2023-07-29T12:22:51;1.1;;;1.0;;
61499;SDS011;47361;49.996;19.918;2023-07-29T12:25:51;2.7;;;1.4;;
61499;SDS011;47361;49.996;19.918;2023-07-29T12:28:50;2.7;;;1.4;;
61499;SDS011;47361;49.996;19.918;2023-07-29T12:29:52;2.7;;;1.4;;
61499;SDS011;47361;49.996;19.918;2023-07-29T12:30:53;1.8;;;1.3;;
61499;SDS011;47361;49.996;19.918;2023-07-29T12:34:53;1.8;;;1.3;;
61499;SDS011;47361;49.996;19.918;2023-07-29T12:35:50;1.9;;;1.7;;
61499;SDS011;47361;49.996;19.918;2023-07-29T12:36:51;1.9;;;1.7;;
61499;SDS011;47361;49.996;19.918;2023-07-29T12:37:58;1.9;;;1.7;;
61499;SDS011;47361;49.996;19.918;2023-07-29T12:41:51;1.9;;;1.4;;
61499;SDS011;47361;49.996;19.918;2023-07-29T12:43:50;1.9;;;1.4;;
61499;SDS011;47361;49.996;19.918;2023-07-29T12:44:50;1.9;;;1.4;;
61499;SDS011;47361;49.996;19.918;2023-07-29T12:45:50;2.5;;;1.6;;
61499;SDS011;47361;49.996;19.918;2023-07-29T12:46:50;2.5;;;1.6;;
61499;SDS011;47361;49.996;19.918;2023-07-29T12:48:50;2.5;;;1.6;;
61499;SDS011;47361;49.996;19.918;2023-07-29T12:51:50;2.5;;;1.4;;
61499;SDS011;47361;49.996;19.918;2023-07-29T12:53:50;2.5;;;1.4;;
61499;SDS011;47361;49.996;19.918;2023-07-29T12:54:50;2.5;;;1.4;;
61499;SDS011;47361;49.996;19.918;2023-07-29T12:56:50;3.0;;;1.6;;
61499;SDS011;47361;49.996;19.918;2023-07-29T12:57:50;3.0;;;1.6;;
61499;SDS011;47361;49.996;19.918;2023-07-29T12:58:50;3.0;;;1.6;;
61499;SDS011;47361;49.996;19.918;2023-07-29T13:00:50;2.7;;;1.6;;
61499;SDS011;47361;49.996;19.918;2023-07-29T13:05:51;1.5;;;1.4;;
61499;SDS011;47361;49.996;19.918;2023-07-29T13:07:50;1.5;;;1.4;;
61499;SDS011;47361;49.996;19.918;2023-07-29T13:14:50;2.2;;;1.8;;
61499;SDS011;47361;49.996;19.918;2023-07-29T13:16:50;2.2;;;1.6;;
61499;SDS011;47361;49.996;19.918;2023-07-29T13:20:50;3.6;;;1.7;;
61499;SDS011;47361;49.996;19.918;2023-07-29T13:21:50;3.6;;;1.7;;
61499;SDS011;47361;49.996;19.918;2023-07-29T13:22:50;3.6;;;1.7;;
61499;SDS011;47361;49.996;19.918;2023-07-29T13:23:50;3.6;;;1.7;;
61499;SDS011;47361;49.996;19.918;2023-07-29T13:24:50;3.6;;;1.7;;
61499;SDS011;47361;49.996;19.918;2023-07-29T13:26:50;4.8;;;2.8;;
61499;SDS011;47361;49.996;19.918;2023-07-29T13:27:50;4.8;;;2.8;;
61499;SDS011;47361;49.996;19.918;2023-07-29T13:28:50;4.8;;;2.8;;
61499;SDS011;47361;49.996;19.918;2023-07-29T13:31:50;2.7;;;1.8;;
61499;SDS011;47361;49.996;19.918;2023-07-29T13:32:50;2.7;;;1.8;;
61499;SDS011;47361;49.996;19.918;2023-07-29T13:33:50;2.7;;;1.8;;
61499;SDS011;47361;49.996;19.918;2023-07-29T13:34:50;2.7;;;1.8;;
61499;SDS011;47361;49.996;19.918;2023-07-29T13:36:50;2.4;;;1.4;;
61499;SDS011;47361;49.996;19.918;2023-07-29T13:38:50;2.4;;;1.4;;
61499;SDS011;47361;49.996;19.918;2023-07-29T13:39:50;2.4;;;1.4;;
61499;SDS011;47361;49.996;19.918;2023-07-29T13:40:50;4.0;;;1.7;;
61499;SDS011;47361;49.996;19.918;2023-07-29T13:46:50;2.1;;;1.4;;
61499;SDS011;47361;49.996;19.918;2023-07-29T13:47:50;2.1;;;1.4;;
61499;SDS011;47361;49.996;19.918;2023-07-29T13:48:50;2.1;;;1.4;;
61499;SDS011;47361;49.996;19.918;2023-07-29T13:49:50;2.1;;;1.4;;
61499;SDS011;47361;49.996;19.918;2023-07-29T13:51:50;3.6;;;1.9;;
61499;SDS011;47361;49.996;19.918;2023-07-29T13:53:50;3.6;;;1.9;;
61499;SDS011;47361;49.996;19.918;2023-07-29T13:54:50;3.6;;;1.9;;
61499;SDS011;47361;49.996;19.918;2023-07-29T13:56:50;2.6;;;2.0;;
61499;SDS011;47361;49.996;19.918;2023-07-29T13:57:51;2.6;;;2.0;;
61499;SDS011;47361;49.996;19.918;2023-07-29T13:58:50;2.6;;;2.0;;
61499;SDS011;47361;49.996;19.918;2023-07-29T14:00:50;2.4;;;1.6;;
61499;SDS011;47361;49.996;19.918;2023-07-29T14:02:50;2.4;;;1.6;;
61499;SDS011;47361;49.996;19.918;2023-07-29T14:03:50;2.4;;;1.6;;
61499;SDS011;47361;49.996;19.918;2023-07-29T14:04:50;2.4;;;1.6;;
61499;SDS011;47361;49.996;19.918;2023-07-29T14:07:50;4.5;;;1.4;;
61499;SDS011;47361;49.996;19.918;2023-07-29T14:08:50;4.5;;;1.4;;
61499;SDS011;47361;49.996;19.918;2023-07-29T14:09:50;4.5;;;1.4;;
61499;SDS011;47361;49.996;19.918;2023-07-29T14:10:50;5.5;;;3.3;;
61499;SDS011;47361;49.996;19.918;2023-07-29T14:11:50;5.5;;;3.3;;
61499;SDS011;47361;49.996;19.918;2023-07-29T14:12:50;5.5;;;3.3;;
61499;SDS011;47361;49.996;19.918;2023-07-29T14:13:50;5.5;;;3.3;;
61499;SDS011;47361;49.996;19.918;2023-07-29T14:14:50;5.5;;;3.3;;
61499;SDS011;47361;49.996;19.918;2023-07-29T14:15:50;2.7;;;1.5;;
61499;SDS011;47361;49.996;19.918;2023-07-29T14:16:50;2.7;;;1.5;;